Miles City, MT

3:08 PM MDT on September 20, 2014 (GMT -0600)
Wiley | Change Station
CLOSE
Current Station
Airport
Location: Miles City,
Elevation: 2628 ft
Nearby Weather Stations

Elev 2628 ft 46.43 °N, 105.88 °W | Updated 15 minutes ago

Clear
Clear
75 °F
Feels Like 75 °F
N
16
Wind Variable Wind from NW

Today
High -- | Low -- °F
--% Chance of Precip.
Yesterday
High -- | Low -- °F
Precip. -- in
6:47 AM 7:05 PM
Waning Crescent, 10% visible
Pressure 30.16 in
Visibility 10.0 miles
Clouds Clear
Dew Point 37 °F
Humidity 25%
Rainfall 0.00 in
Snow Depth 0 in , 1 in , 0 in
UV 5 out of 12
Pollen 5.00 out of 12
Air Quality Not available.
Flu Activity Not available.
METAR KMLS 202053Z AUTO 32014KT 10SM CLR 24/03 A3019 RMK AO2 SLP211 T02390028 53001

More Conditions Fewer Conditions

Pressure 30.16 in
Visibility 10.0 miles
Clouds Clear
Dew Point 37 °F
Humidity 25%
Rainfall 0.00 in
Snow Depth 0 in , 1 in , 0 in
UV 5 out of 12
Pollen 5.00 out of 12
Air Quality Not available.
Flu Activity Not available.
METAR KMLS 202053Z AUTO 32014KT 10SM CLR 24/03 A3019 RMK AO2 SLP211 T02390028 53001

More Conditions Fewer Conditions

10-Day Weather Forecast

Almanac

Astronomy

Sep. 20, 2014 Rise Set
Actual Time 6:47 AM MDT 7:05 PM MDT
Civil Twilight 6:17 AM MDT 7:35 PM MDT
Nautical Twilight 5:42 AM MDT 8:10 PM MDT
Astronomical Twilight 5:05 AM MDT 8:47 PM MDT
Moon 3:20 AM MDT 5:17 PM MDT
Length of Visible Light 13h 17m
Length of Day
12h 17m
Tomorrow will be 3m 16s shorter.
Waning Crescent, 10% of the Moon is Illuminated
Today
Waning Crescent
Sep 24
New
Oct 1
First Quarter
Oct 8
Full
Oct 15
Last Quarter

Today's Extremes

State Highs State Lows

Community

WunderPhotos

Upload Photos

1,754,947 photos uploaded!

WunderBlogs® & News

Nearby

Snow Depth

Station Depth Elevation
Badger Pass 0 in 6900 ft
Garver Creek 1 in 4250 ft
Black Pine 0 in 7210 ft
Fisher Creek 0 in 9100 ft
Brackett Creek 0 in 7320 ft

Earthquake Activity

City Distance Mag. Time & Date
No recent earthquake activity has been reported nearby.
Minimum magnitude displayed is 2.5.

Coastal Water Temperatures

Place Temperature
No Stations Reporting

Nearby Weather Stations